createdAt,value
2023-04-02T00:01:34.560Z,100.00
2023-04-02T00:04:22.535Z,100.00
2023-04-02T00:07:16.719Z,100.00
2023-04-02T00:12:24.156Z,100.00
2023-04-02T00:14:54.670Z,100.00
2023-04-02T00:17:38.764Z,100.00
2023-04-02T00:20:07.891Z,100.00
2023-04-02T00:22:34.457Z,100.00
2023-04-02T00:25:23.130Z,100.00
2023-04-02T00:27:50.243Z,100.00
2023-04-02T00:30:17.193Z,100.00
2023-04-02T00:32:44.004Z,100.00
2023-04-02T00:35:29.291Z,100.00
2023-04-02T00:37:57.190Z,100.00
2023-04-02T00:40:44.699Z,100.00
2023-04-02T00:43:16.646Z,100.00
2023-04-02T00:46:04.121Z,100.00
2023-04-02T00:48:33.559Z,100.00
2023-04-02T00:53:52.405Z,100.00
2023-04-02T00:56:46.324Z,100.00
2023-04-02T00:59:29.367Z,100.00
2023-04-02T01:02:14.849Z,100.00
2023-04-02T01:04:41.793Z,100.00
2023-04-02T01:07:11.109Z,100.00
2023-04-02T01:10:11.529Z,100.00
2023-04-02T01:12:38.154Z,100.00
2023-04-02T01:15:10.766Z,100.00
2023-04-02T01:17:49.325Z,100.00
2023-04-02T01:20:33.972Z,100.00
2023-04-02T01:23:05.757Z,100.00
2023-04-02T01:25:46.143Z,100.00
2023-04-02T01:28:21.118Z,100.00
2023-04-02T01:30:52.917Z,100.00
2023-04-02T01:33:23.241Z,100.00
2023-04-02T01:36:05.762Z,100.00
2023-04-02T01:38:41.780Z,100.00
2023-04-02T01:41:27.066Z,100.00
2023-04-02T01:44:00.929Z,100.00
2023-04-02T01:46:33.192Z,100.00
2023-04-02T01:49:20.590Z,100.00
2023-04-02T01:51:53.107Z,100.00
2023-04-02T01:54:21.470Z,100.00
2023-04-02T01:56:48.554Z,100.00
2023-04-02T01:59:22.209Z,100.00
2023-04-02T02:04:25.757Z,100.00
2023-04-02T02:06:52.559Z,100.00
2023-04-02T02:09:45.919Z,100.00
2023-04-02T02:12:21.359Z,100.00
2023-04-02T02:14:49.961Z,100.00
2023-04-02T02:17:35.787Z,100.00
2023-04-02T02:20:10.947Z,100.00
2023-04-02T02:22:40.032Z,100.00
2023-04-02T02:25:14.349Z,100.00
2023-04-02T02:27:47.013Z,100.00
2023-04-02T02:30:22.446Z,100.00
2023-04-02T02:33:00.714Z,100.00
2023-04-02T02:35:35.182Z,100.00
2023-04-02T02:38:29.333Z,100.00
2023-04-02T02:41:01.950Z,100.00
2023-04-02T02:43:28.761Z,100.00
2023-04-02T02:45:56.929Z,100.00
2023-04-02T02:48:34.061Z,100.00
2023-04-02T02:51:07.945Z,100.00
2023-04-02T02:53:46.469Z,100.00
2023-04-02T02:56:29.061Z,100.00
2023-04-02T02:59:00.146Z,100.00
2023-04-02T03:04:10.770Z,100.00
2023-04-02T03:06:37.668Z,100.00
2023-04-02T03:09:34.655Z,100.00
2023-04-02T03:12:24.647Z,100.00
2023-04-02T03:14:57.661Z,100.00
2023-04-02T03:17:33.894Z,100.00
2023-04-02T03:20:11.256Z,100.00
2023-04-02T03:23:06.747Z,100.00
2023-04-02T03:25:53.236Z,100.00
2023-04-02T03:28:25.992Z,100.00
2023-04-02T03:31:01.158Z,100.00
2023-04-02T03:33:35.960Z,100.00
2023-04-02T03:36:30.376Z,100.00
2023-04-02T03:39:22.921Z,100.00
2023-04-02T03:41:55.088Z,100.00
2023-04-02T03:44:33.147Z,100.00
2023-04-02T03:47:10.277Z,100.00
2023-04-02T03:49:44.524Z,100.00
2023-04-02T03:52:24.117Z,100.00
2023-04-02T03:54:54.121Z,100.00
2023-04-02T03:58:16.377Z,100.00
2023-04-02T04:01:17.509Z,100.00
2023-04-02T04:04:06.937Z,100.00
2023-04-02T04:06:35.773Z,100.00
2023-04-02T04:09:10.975Z,100.00
2023-04-02T04:11:44.739Z,100.00
2023-04-02T04:14:33.537Z,99.67
2023-04-02T04:17:24.701Z,100.00
2023-04-02T04:19:59.453Z,99.39
2023-04-02T04:22:31.852Z,99.54
2023-04-02T04:25:50.648Z,98.42
2023-04-02T04:28:29.620Z,98.40
2023-04-02T04:31:18.069Z,98.11
2023-04-02T04:34:03.156Z,98.07
2023-04-02T04:36:35.385Z,97.94
2023-04-02T04:39:23.977Z,97.60
2023-04-02T04:41:52.445Z,96.66
2023-04-02T04:44:35.728Z,96.28
2023-04-02T04:47:15.490Z,96.26
2023-04-02T04:49:56.145Z,95.93
2023-04-02T04:52:29.467Z,96.45
2023-04-02T04:54:56.033Z,96.23
2023-04-02T04:57:31.140Z,96.07
2023-04-02T05:00:07.186Z,96.62
2023-04-02T05:02:48.945Z,96.10
2023-04-02T05:05:29.286Z,96.16
2023-04-02T05:08:04.349Z,95.95
2023-04-02T05:10:41.007Z,95.55
2023-04-02T05:13:19.170Z,95.66
2023-04-02T05:16:09.681Z,95.15
2023-04-02T05:18:43.289Z,95.11
2023-04-02T05:21:35.660Z,94.27
2023-04-02T05:24:05.068Z,94.75
2023-04-02T05:26:41.877Z,94.41
2023-04-02T05:29:18.942Z,94.51
2023-04-02T05:32:10.938Z,93.73
2023-04-02T05:34:39.251Z,94.52
2023-04-02T05:37:09.098Z,93.85
2023-04-02T05:39:35.710Z,93.63
2023-04-02T05:42:08.396Z,94.36
2023-04-02T05:44:41.758Z,93.81
2023-04-02T05:47:14.287Z,93.58
2023-04-02T05:49:44.667Z,93.21
2023-04-02T05:52:31.933Z,92.83
2023-04-02T05:55:16.608Z,93.19
2023-04-02T05:58:13.351Z,93.40
2023-04-02T06:00:38.724Z,93.05
2023-04-02T06:03:16.103Z,92.82
2023-04-02T06:06:01.183Z,92.15
2023-04-02T06:08:39.787Z,92.65
2023-04-02T06:11:32.114Z,92.35
2023-04-02T06:13:59.779Z,92.05
2023-04-02T06:16:46.197Z,92.15
2023-04-02T06:19:26.592Z,92.36
2023-04-02T06:22:00.580Z,92.06
2023-04-02T06:24:29.948Z,91.92
2023-04-02T06:27:03.330Z,91.43
2023-04-02T06:29:40.536Z,91.58
2023-04-02T06:32:26.950Z,91.63
2023-04-02T06:34:54.049Z,92.19
2023-04-02T06:37:43.379Z,91.54
2023-04-02T06:40:43.998Z,92.21
2023-04-02T06:43:33.624Z,91.73
2023-04-02T06:46:06.180Z,91.73
2023-04-02T06:48:37.852Z,91.68
2023-04-02T06:51:13.465Z,91.14
2023-04-02T06:53:59.196Z,91.08
2023-04-02T06:56:54.500Z,90.84
2023-04-02T06:59:21.195Z,90.73
2023-04-02T07:02:06.710Z,90.31
2023-04-02T07:04:54.853Z,90.42
2023-04-02T07:07:21.388Z,90.65
2023-04-02T07:09:51.324Z,90.49
2023-04-02T07:12:33.172Z,90.73
2023-04-02T07:14:59.968Z,91.01
2023-04-02T07:17:48.823Z,89.85
2023-04-02T07:20:34.455Z,90.46
2023-04-02T07:23:00.988Z,90.80
2023-04-02T07:25:27.451Z,91.04
2023-04-02T07:27:56.756Z,90.79
2023-04-02T07:30:23.584Z,90.45
2023-04-02T07:33:05.649Z,90.08
2023-04-02T07:35:32.449Z,90.68
2023-04-02T07:37:59.099Z,90.22
2023-04-02T07:40:25.751Z,90.24
2023-04-02T07:43:09.937Z,89.89
2023-04-02T07:45:36.708Z,89.86
2023-04-02T07:48:18.592Z,89.43
2023-04-02T07:50:45.081Z,89.79
2023-04-02T07:53:41.849Z,90.21
2023-04-02T07:56:25.145Z,90.18
2023-04-02T07:58:51.708Z,90.62
2023-04-02T08:01:49.543Z,90.17
2023-04-02T08:04:19.643Z,90.53
2023-04-02T08:06:47.188Z,89.88
2023-04-02T08:09:26.179Z,90.11
2023-04-02T08:11:52.590Z,90.52
2023-04-02T08:14:19.082Z,89.51
2023-04-02T08:16:52.817Z,89.48
2023-04-02T08:19:19.977Z,89.44
2023-04-02T08:21:52.709Z,89.15
2023-04-02T08:24:19.497Z,88.95
2023-04-02T08:27:02.335Z,88.39
2023-04-02T08:29:34.746Z,88.46
2023-04-02T08:32:01.926Z,89.14
2023-04-02T08:34:47.819Z,88.64
2023-04-02T08:37:15.134Z,87.02
2023-04-02T08:39:54.231Z,87.51
2023-04-02T08:42:26.658Z,87.03
2023-04-02T08:47:51.196Z,87.09
2023-04-02T08:53:28.151Z,86.99
2023-04-02T08:56:18.431Z,87.72
2023-04-02T08:58:50.657Z,87.23
2023-04-02T09:01:19.912Z,86.48
2023-04-02T09:04:58.589Z,86.33
2023-04-02T09:07:27.039Z,85.71
2023-04-02T09:09:53.468Z,85.19
2023-04-02T09:12:42.817Z,84.87
2023-04-02T09:15:31.471Z,85.59
2023-04-02T09:18:18.567Z,85.58
2023-04-02T09:20:45.634Z,85.54
2023-04-02T09:26:22.934Z,85.91
2023-04-02T09:31:44.347Z,85.17
2023-04-02T09:34:29.750Z,84.00
2023-04-02T09:36:56.792Z,83.62
2023-04-02T09:39:27.853Z,83.35
2023-04-02T09:45:31.211Z,81.79
2023-04-02T09:47:58.859Z,81.28
2023-04-02T09:50:28.782Z,81.86
2023-04-02T09:52:55.966Z,80.42
2023-04-02T09:55:28.970Z,78.83
2023-04-02T09:58:23.802Z,78.48
2023-04-02T10:00:53.089Z,80.56
2023-04-02T10:03:27.366Z,78.48
2023-04-02T10:06:07.674Z,78.75
2023-04-02T10:08:35.789Z,76.80
2023-04-02T10:11:19.205Z,74.70
2023-04-02T10:17:15.866Z,65.36
2023-04-02T10:22:56.070Z,63.28
2023-04-02T10:25:44.342Z,61.26
2023-04-02T10:28:24.340Z,60.83
2023-04-02T10:31:33.605Z,60.85
2023-04-02T10:34:24.808Z,57.90
2023-04-02T10:37:16.046Z,58.18
2023-04-02T10:40:09.830Z,58.95
2023-04-02T10:43:07.622Z,57.44
2023-04-02T10:45:49.872Z,59.50
2023-04-02T10:49:02.153Z,57.10
2023-04-02T10:51:43.979Z,55.20
2023-04-02T10:54:59.873Z,57.26
2023-04-02T10:57:29.347Z,53.83
2023-04-02T11:00:22.807Z,53.42
2023-04-02T11:03:13.663Z,55.42
2023-04-02T11:06:24.645Z,54.23
2023-04-02T11:08:57.304Z,55.03
2023-04-02T11:11:33.054Z,53.33
2023-04-02T11:14:05.536Z,53.86
2023-04-02T11:16:51.942Z,53.18
2023-04-02T11:19:18.478Z,53.88
2023-04-02T11:22:03.135Z,53.15
2023-04-02T11:24:32.977Z,51.98
2023-04-02T11:27:11.727Z,52.22
2023-04-02T11:30:02.784Z,51.52
2023-04-02T11:32:52.243Z,52.93
2023-04-02T11:38:23.643Z,52.32
2023-04-02T11:41:08.214Z,53.26
2023-04-02T11:43:35.377Z,53.70
2023-04-02T11:46:17.173Z,55.36
2023-04-02T11:49:33.665Z,54.62
2023-04-02T11:52:23.141Z,51.63
2023-04-02T11:54:59.940Z,51.71
2023-04-02T11:57:57.681Z,51.76
2023-04-02T12:01:02.294Z,51.27
2023-04-02T12:04:06.940Z,51.28
2023-04-02T12:07:04.787Z,52.45
2023-04-02T12:09:55.468Z,52.38
2023-04-02T12:12:43.220Z,53.42
2023-04-02T12:15:43.051Z,54.14
2023-04-02T12:18:29.579Z,54.60
2023-04-02T12:20:57.225Z,53.37
2023-04-02T12:23:45.073Z,52.48
2023-04-02T12:26:42.357Z,53.19
2023-04-02T12:29:26.830Z,54.27
2023-04-02T12:31:55.439Z,53.36
2023-04-02T12:34:37.098Z,52.46
2023-04-02T12:37:05.404Z,52.76
2023-04-02T12:42:27.628Z,54.46
2023-04-02T12:45:02.636Z,53.24
2023-04-02T12:47:48.668Z,54.55
2023-04-02T12:50:17.235Z,55.23
2023-04-02T12:53:02.116Z,55.37
2023-04-02T12:55:28.902Z,55.53
2023-04-02T12:58:47.517Z,54.07
2023-04-02T13:01:38.170Z,54.60
2023-04-02T13:04:12.390Z,54.22
2023-04-02T13:06:49.923Z,53.92
2023-04-02T13:09:41.720Z,53.47
2023-04-02T13:16:00.972Z,56.67
2023-04-02T13:18:40.372Z,53.81
2023-04-02T13:21:36.025Z,54.14
2023-04-02T13:24:02.563Z,54.51
2023-04-02T13:26:49.605Z,53.80
2023-04-02T13:29:26.723Z,53.09
2023-04-02T13:34:36.591Z,54.21
2023-04-02T13:37:03.260Z,53.77
2023-04-02T13:39:30.478Z,53.52
2023-04-02T13:42:03.481Z,53.87
2023-04-02T13:44:51.715Z,53.34
2023-04-02T13:47:18.176Z,54.80
2023-04-02T13:49:44.693Z,55.43
2023-04-02T13:52:23.210Z,53.55
2023-04-02T13:55:10.643Z,53.49
2023-04-02T13:57:37.458Z,53.01
2023-04-02T14:00:05.105Z,53.08
2023-04-02T14:03:22.843Z,52.00
2023-04-02T14:10:16.492Z,51.97
2023-04-02T14:12:52.431Z,51.88
2023-04-02T14:15:38.544Z,54.10
2023-04-02T14:18:24.179Z,53.50
2023-04-02T14:21:38.533Z,54.23
2023-04-02T14:24:31.297Z,52.43
2023-04-02T14:27:04.348Z,54.14
2023-04-02T14:30:18.500Z,54.83
2023-04-02T14:33:05.585Z,54.38
2023-04-02T14:35:54.580Z,53.68
2023-04-02T14:38:42.084Z,55.17
2023-04-02T14:41:55.992Z,54.47
2023-04-02T14:44:27.784Z,54.33
2023-04-02T14:47:11.670Z,55.82
2023-04-02T14:49:44.134Z,55.23
2023-04-02T14:52:19.110Z,54.22
2023-04-02T14:55:10.106Z,54.00
2023-04-02T14:57:41.081Z,54.04
2023-04-02T15:00:28.854Z,53.91
2023-04-02T15:03:15.259Z,54.63
2023-04-02T15:06:03.578Z,54.12
2023-04-02T15:08:37.027Z,53.08
2023-04-02T15:11:56.724Z,53.76
2023-04-02T15:14:37.280Z,52.88
2023-04-02T15:17:03.702Z,52.97
2023-04-02T15:19:30.264Z,52.61
2023-04-02T15:22:28.732Z,52.55
2023-04-02T15:25:04.268Z,51.52
2023-04-02T15:28:04.076Z,53.80
2023-04-02T15:30:38.024Z,53.66
2023-04-02T15:33:30.387Z,53.16
2023-04-02T15:36:04.204Z,53.81
2023-04-02T15:39:15.660Z,53.10
2023-04-02T15:41:56.415Z,52.38
2023-04-02T15:44:22.834Z,52.69
2023-04-02T15:46:55.920Z,53.13
2023-04-02T15:49:42.889Z,53.62
2023-04-02T15:52:38.454Z,52.90
2023-04-02T15:55:45.393Z,52.63
2023-04-02T15:58:21.827Z,52.68
2023-04-02T16:01:11.732Z,52.56
2023-04-02T16:03:47.441Z,52.52
2023-04-02T16:06:28.232Z,53.01
2023-04-02T16:09:27.083Z,53.04
2023-04-02T16:12:01.223Z,54.54
2023-04-02T16:14:31.676Z,53.17
2023-04-02T16:17:21.491Z,53.03
2023-04-02T16:19:56.585Z,54.19
2023-04-02T16:22:29.167Z,54.49
2023-04-02T16:25:17.208Z,53.55
2023-04-02T16:27:54.125Z,53.42
2023-04-02T16:30:35.299Z,53.84
2023-04-02T16:33:23.032Z,54.68
2023-04-02T16:35:52.251Z,54.46
2023-04-02T16:38:25.332Z,54.52
2023-04-02T16:41:10.522Z,54.69
2023-04-02T16:44:08.135Z,54.64
2023-04-02T16:47:01.877Z,56.20
2023-04-02T16:49:46.080Z,54.98
2023-04-02T16:52:24.582Z,55.60
2023-04-02T16:55:12.579Z,55.52
2023-04-02T16:58:17.469Z,55.60
2023-04-02T17:01:11.925Z,55.29
2023-04-02T17:03:56.889Z,55.67
2023-04-02T17:06:40.949Z,55.66
2023-04-02T17:09:35.054Z,55.79
2023-04-02T17:12:15.913Z,56.81
2023-04-02T17:14:51.053Z,57.07
2023-04-02T17:17:17.852Z,56.96
2023-04-02T17:19:45.052Z,56.98
2023-04-02T17:22:27.108Z,57.91
2023-04-02T17:25:04.864Z,57.78
2023-04-02T17:27:35.515Z,57.75
2023-04-02T17:30:17.351Z,57.90
2023-04-02T17:32:43.859Z,58.33
2023-04-02T17:35:40.184Z,58.04
2023-04-02T17:38:40.378Z,58.36
2023-04-02T17:41:40.493Z,58.71
2023-04-02T17:44:46.420Z,58.80
2023-04-02T17:47:22.575Z,58.70
2023-04-02T17:50:19.834Z,58.74
2023-04-02T17:52:56.125Z,59.25
2023-04-02T17:55:37.862Z,60.14
2023-04-02T17:58:23.665Z,61.03
2023-04-02T18:01:02.082Z,61.43
2023-04-02T18:03:47.669Z,61.54
2023-04-02T18:06:19.680Z,61.20
2023-04-02T18:09:10.639Z,60.91
2023-04-02T18:12:02.230Z,61.53
2023-04-02T18:14:50.798Z,61.95
2023-04-02T18:17:36.193Z,61.94
2023-04-02T18:20:21.301Z,61.99
2023-04-02T18:23:03.268Z,62.39
2023-04-02T18:25:43.993Z,63.55
2023-04-02T18:28:42.345Z,63.32
2023-04-02T18:31:40.795Z,63.92
2023-04-02T18:34:28.574Z,63.97
2023-04-02T18:37:14.892Z,64.49
2023-04-02T18:39:58.608Z,64.59
2023-04-02T18:42:46.059Z,65.25
2023-04-02T18:45:28.531Z,65.49
2023-04-02T18:48:14.525Z,65.52
2023-04-02T18:50:45.985Z,65.76
2023-04-02T18:53:18.501Z,66.47
2023-04-02T18:55:50.165Z,66.63
2023-04-02T18:58:25.736Z,66.78
2023-04-02T19:00:52.529Z,66.49
2023-04-02T19:03:28.606Z,66.60
2023-04-02T19:06:05.602Z,66.91
2023-04-02T19:08:47.033Z,66.86
2023-04-02T19:11:17.335Z,67.38
2023-04-02T19:13:48.346Z,67.58
2023-04-02T19:19:06.625Z,67.84
2023-04-02T19:21:51.541Z,68.02
2023-04-02T19:24:41.548Z,68.48
2023-04-02T19:27:19.337Z,68.46
2023-04-02T19:29:56.710Z,69.14
2023-04-02T19:32:31.104Z,69.84
2023-04-02T19:35:22.349Z,70.07
2023-04-02T19:38:00.596Z,70.18
2023-04-02T19:40:36.370Z,70.25
2023-04-02T19:43:03.070Z,70.22
2023-04-02T19:45:44.616Z,70.76
2023-04-02T19:48:21.136Z,70.80
2023-04-02T19:50:49.161Z,71.02
2023-04-02T19:53:16.813Z,70.89
2023-04-02T19:55:44.491Z,71.19
2023-04-02T19:58:29.416Z,71.33
2023-04-02T20:00:56.301Z,71.36
2023-04-02T20:03:23.674Z,71.40
2023-04-02T20:05:50.709Z,71.24
2023-04-02T20:08:17.399Z,71.19
2023-04-02T20:10:44.139Z,71.10
2023-04-02T20:13:10.829Z,71.08
2023-04-02T20:15:39.380Z,71.06
2023-04-02T20:18:06.056Z,71.55
2023-04-02T20:20:32.787Z,71.61
2023-04-02T20:22:59.359Z,71.58
2023-04-02T20:25:26.151Z,71.20
2023-04-02T20:27:52.895Z,70.93
2023-04-02T20:30:46.545Z,70.96
2023-04-02T20:33:13.125Z,71.05
2023-04-02T20:35:39.757Z,71.36
2023-04-02T20:38:08.344Z,71.79
2023-04-02T20:40:35.918Z,71.77
2023-04-02T20:43:02.524Z,71.59
2023-04-02T20:45:29.724Z,71.70
2023-04-02T20:47:56.629Z,71.29
2023-04-02T20:50:23.409Z,71.59
2023-04-02T20:52:49.772Z,71.67
2023-04-02T20:55:16.489Z,71.67
2023-04-02T20:57:43.106Z,71.67
2023-04-02T21:00:11.400Z,72.13
2023-04-02T21:02:38.048Z,72.11
2023-04-02T21:05:04.840Z,72.07
2023-04-02T21:07:40.547Z,71.94
2023-04-02T21:10:07.369Z,72.35
2023-04-02T21:12:33.880Z,71.73
2023-04-02T21:15:02.509Z,71.96
2023-04-02T21:17:29.708Z,72.16
2023-04-02T21:19:56.333Z,72.27
2023-04-02T21:22:22.927Z,72.04
2023-04-02T21:24:49.491Z,72.34
2023-04-02T21:27:16.858Z,72.42
2023-04-02T21:29:43.446Z,72.74
2023-04-02T21:32:21.337Z,72.30
2023-04-02T21:34:48.420Z,71.81
2023-04-02T21:37:14.958Z,71.96
2023-04-02T21:39:41.629Z,72.68
2023-04-02T21:42:08.304Z,72.17
2023-04-02T21:44:34.731Z,72.34
2023-04-02T21:47:01.322Z,72.25
2023-04-02T21:49:27.999Z,72.78
2023-04-02T21:51:54.617Z,72.57
2023-04-02T21:54:21.491Z,72.69
2023-04-02T21:56:48.387Z,72.57
2023-04-02T21:59:16.866Z,72.35
2023-04-02T22:01:49.135Z,71.95
2023-04-02T22:04:23.108Z,72.24
2023-04-02T22:06:51.016Z,72.38
2023-04-02T22:09:43.634Z,72.70
2023-04-02T22:12:11.014Z,72.53
2023-04-02T22:14:43.825Z,72.78
2023-04-02T22:17:10.497Z,72.60
2023-04-02T22:19:37.005Z,72.49
2023-04-02T22:22:03.811Z,72.99
2023-04-02T22:24:30.461Z,72.65
2023-04-02T22:26:56.986Z,72.88
2023-04-02T22:29:23.702Z,73.13
2023-04-02T22:31:50.629Z,73.83
2023-04-02T22:34:17.316Z,73.50
2023-04-02T22:36:43.896Z,73.94
2023-04-02T22:39:12.365Z,73.72
2023-04-02T22:41:39.448Z,73.45
2023-04-02T22:44:06.038Z,74.21
2023-04-02T22:46:33.004Z,74.17
2023-04-02T22:48:59.672Z,74.55
2023-04-02T22:51:27.990Z,74.73
2023-04-02T22:53:55.418Z,74.67
2023-04-02T22:56:24.814Z,74.44
2023-04-02T22:58:51.626Z,74.58
2023-04-02T23:01:25.717Z,75.28
2023-04-02T23:03:55.942Z,74.69
2023-04-02T23:06:27.110Z,75.07
2023-04-02T23:08:53.555Z,74.73
2023-04-02T23:11:23.458Z,74.63
2023-04-02T23:13:52.372Z,75.07
2023-04-02T23:16:19.864Z,74.92
2023-04-02T23:18:48.184Z,75.18
2023-04-02T23:21:16.515Z,74.74
2023-04-02T23:23:43.498Z,74.90
2023-04-02T23:26:21.844Z,74.77
2023-04-02T23:28:49.333Z,74.82
2023-04-02T23:31:18.995Z,74.64
2023-04-02T23:33:45.942Z,74.56
2023-04-02T23:36:23.327Z,74.81
2023-04-02T23:38:55.658Z,74.33
2023-04-02T23:41:24.326Z,74.32
2023-04-02T23:43:51.052Z,74.38
2023-04-02T23:46:17.590Z,74.33
2023-04-02T23:48:45.850Z,74.45
2023-04-02T23:51:13.354Z,74.04
2023-04-02T23:53:40.314Z,73.98
2023-04-02T23:56:07.030Z,73.94
2023-04-02T23:58:33.492Z,74.50
